createdAt,value
2022-12-28T00:02:15.246Z,-1.16
2022-12-28T00:05:19.735Z,-0.94
2022-12-28T00:08:22.713Z,-0.26
2022-12-28T00:11:30.546Z,-0.06
2022-12-28T00:14:40.106Z,-0.11
2022-12-28T00:17:51.863Z,0.01
2022-12-28T00:21:01.698Z,0.21
2022-12-28T00:24:05.362Z,0.25
2022-12-28T00:27:08.247Z,0.12
2022-12-28T00:30:11.529Z,0.19
2022-12-28T00:33:20.347Z,-0.03
2022-12-28T00:36:23.158Z,-0.30
2022-12-28T00:39:28.805Z,-0.46
2022-12-28T00:42:31.485Z,-0.47
2022-12-28T00:45:36.507Z,-0.42
2022-12-28T00:48:39.903Z,-0.57
2022-12-28T00:51:43.040Z,-0.33
2022-12-28T00:54:45.843Z,-0.17
2022-12-28T00:57:48.527Z,-0.22
2022-12-28T01:00:52.499Z,-0.22
2022-12-28T01:03:57.262Z,-0.28
2022-12-28T01:07:00.048Z,-0.46
2022-12-28T01:10:02.996Z,-0.64
2022-12-28T01:13:21.808Z,-0.78
2022-12-28T01:16:29.953Z,-0.97
2022-12-28T01:19:50.243Z,-1.25
2022-12-28T01:23:19.689Z,-1.46
2022-12-28T01:26:22.864Z,-1.69
2022-12-28T01:29:25.647Z,-1.74
2022-12-28T01:32:28.450Z,-1.81
2022-12-28T01:35:33.596Z,-1.91
2022-12-28T01:38:39.052Z,-1.97
2022-12-28T01:41:42.672Z,-2.11
2022-12-28T01:44:50.340Z,-2.14
2022-12-28T01:47:54.906Z,-2.08
2022-12-28T01:51:01.672Z,-1.78
2022-12-28T01:54:05.239Z,-1.44
2022-12-28T01:57:13.497Z,-1.38
2022-12-28T02:00:17.206Z,-1.58
2022-12-28T02:03:23.286Z,-1.42
2022-12-28T02:06:32.020Z,-1.50
2022-12-28T02:09:40.519Z,-1.66
2022-12-28T02:12:52.960Z,-1.77
2022-12-28T02:15:58.751Z,-1.80
2022-12-28T02:19:01.661Z,-1.95
2022-12-28T02:22:29.123Z,-2.03
2022-12-28T02:26:04.210Z,-2.11
2022-12-28T02:29:36.489Z,-2.22
2022-12-28T02:33:13.253Z,-2.43
2022-12-28T02:36:21.240Z,-2.42
2022-12-28T02:39:30.576Z,-2.55
2022-12-28T02:42:38.295Z,-2.56
2022-12-28T02:46:07.111Z,-2.81
2022-12-28T02:49:48.963Z,-2.79
2022-12-28T02:53:22.717Z,-2.77
2022-12-28T02:56:45.429Z,-2.82
2022-12-28T03:00:05.798Z,-2.89
2022-12-28T03:03:18.751Z,-3.15
2022-12-28T03:07:20.874Z,-3.02
2022-12-28T03:10:45.173Z,-3.04
2022-12-28T03:13:56.681Z,-3.09
2022-12-28T03:17:29.096Z,-3.12
2022-12-28T03:20:55.571Z,-3.28
2022-12-28T03:24:20.600Z,-3.20
2022-12-28T03:27:44.540Z,-3.27
2022-12-28T03:31:08.617Z,-3.27
2022-12-28T03:34:21.921Z,-3.33
2022-12-28T03:37:48.623Z,-3.49
2022-12-28T03:40:55.749Z,-3.58
2022-12-28T03:44:23.243Z,-3.44
2022-12-28T03:47:27.061Z,-3.46
2022-12-28T03:50:31.272Z,-3.47
2022-12-28T03:53:52.685Z,-3.58
2022-12-28T03:57:01.214Z,-3.57
2022-12-28T04:00:19.770Z,-3.66
2022-12-28T04:03:22.522Z,-3.61
2022-12-28T04:06:26.955Z,-3.64
2022-12-28T04:09:35.115Z,-3.66
2022-12-28T04:12:37.849Z,-3.68
2022-12-28T04:15:40.835Z,-3.69
2022-12-28T04:18:50.269Z,-3.71
2022-12-28T04:21:53.255Z,-3.72
2022-12-28T04:24:55.977Z,-3.68
2022-12-28T04:28:01.189Z,-3.65
2022-12-28T04:31:10.103Z,-3.70
2022-12-28T04:34:20.157Z,-3.73
2022-12-28T04:37:22.915Z,-3.79
2022-12-28T04:40:28.495Z,-3.81
2022-12-28T04:43:41.012Z,-3.85
2022-12-28T04:46:43.793Z,-3.87
2022-12-28T04:49:46.842Z,-3.95
2022-12-28T04:52:49.663Z,-3.99
2022-12-28T04:55:52.427Z,-4.03
2022-12-28T04:58:57.015Z,-4.06
2022-12-28T05:02:02.891Z,-4.06
2022-12-28T05:05:11.189Z,-4.08
2022-12-28T05:08:13.897Z,-4.22
2022-12-28T05:11:25.101Z,-4.14
2022-12-28T05:14:32.313Z,-4.17
2022-12-28T05:17:40.009Z,-4.21
2022-12-28T05:20:42.795Z,-4.16
2022-12-28T05:23:45.838Z,-4.14
2022-12-28T05:26:48.510Z,-4.21
2022-12-28T05:29:51.358Z,-4.19
2022-12-28T05:32:54.130Z,-4.17
2022-12-28T05:36:07.529Z,-4.13
2022-12-28T05:39:10.399Z,-4.14
2022-12-28T05:42:13.335Z,-4.15
2022-12-28T05:45:20.308Z,-4.19
2022-12-28T05:48:23.280Z,-4.37
2022-12-28T05:51:37.350Z,-4.21
2022-12-28T05:54:44.862Z,-4.16
2022-12-28T05:57:47.756Z,-4.13
2022-12-28T06:00:50.458Z,-4.16
2022-12-28T06:04:03.419Z,-4.17
2022-12-28T06:07:06.240Z,-4.12
2022-12-28T06:10:11.905Z,-4.13
2022-12-28T06:13:18.604Z,-4.10
2022-12-28T06:16:23.569Z,-4.09
2022-12-28T06:19:28.872Z,-3.94
2022-12-28T06:22:31.666Z,-3.89
2022-12-28T06:25:41.943Z,-3.91
2022-12-28T06:28:49.835Z,-3.85
2022-12-28T06:31:57.214Z,-3.76
2022-12-28T06:35:01.838Z,-3.68
2022-12-28T06:38:10.169Z,-3.64
2022-12-28T06:41:20.723Z,-3.63
2022-12-28T06:44:23.631Z,-3.54
2022-12-28T06:47:29.365Z,-3.26
2022-12-28T06:50:38.312Z,-3.05
2022-12-28T06:53:48.893Z,-2.91
2022-12-28T06:56:52.297Z,-2.77
2022-12-28T06:59:55.751Z,-2.88
2022-12-28T07:10:12.233Z,-2.91
2022-12-28T07:13:15.110Z,-2.85
2022-12-28T07:16:20.257Z,-2.82
2022-12-28T07:19:23.196Z,-2.77
2022-12-28T07:22:26.052Z,-2.80
2022-12-28T07:25:29.423Z,-2.72
2022-12-28T07:28:38.492Z,-2.57
2022-12-28T07:31:49.311Z,-2.31
2022-12-28T07:35:04.298Z,-2.31
2022-12-28T07:38:07.237Z,-2.21
2022-12-28T07:41:12.269Z,-1.94
2022-12-28T07:44:15.319Z,-1.74
2022-12-28T07:47:21.486Z,-1.03
2022-12-28T07:50:24.272Z,-0.09
2022-12-28T07:53:27.165Z,0.50
2022-12-28T07:59:34.188Z,2.32
2022-12-28T08:02:37.110Z,2.79
2022-12-28T08:05:39.994Z,3.04
2022-12-28T08:08:44.356Z,3.17
2022-12-28T08:11:49.380Z,3.56
2022-12-28T08:14:52.165Z,3.67
2022-12-28T08:17:55.854Z,3.95
2022-12-28T08:21:03.173Z,4.12
2022-12-28T08:24:07.569Z,4.13
2022-12-28T08:27:10.480Z,4.07
2022-12-28T08:30:13.896Z,4.01
2022-12-28T08:33:16.981Z,4.14
2022-12-28T08:36:19.779Z,4.24
2022-12-28T08:39:23.173Z,4.51
2022-12-28T08:42:26.138Z,4.75
2022-12-28T08:45:29.051Z,4.96
2022-12-28T08:48:36.036Z,5.09
2022-12-28T08:51:41.901Z,5.27
2022-12-28T08:54:44.897Z,5.41
2022-12-28T08:57:47.607Z,5.40
2022-12-28T09:00:50.879Z,5.42
2022-12-28T09:03:56.517Z,5.52
2022-12-28T09:06:59.366Z,5.59
2022-12-28T09:10:02.249Z,5.59
2022-12-28T09:13:05.054Z,5.56
2022-12-28T09:16:14.203Z,5.59
2022-12-28T09:19:17.292Z,5.56
2022-12-28T09:22:21.237Z,5.59
2022-12-28T09:25:24.227Z,5.56
2022-12-28T09:28:27.145Z,5.58
2022-12-28T09:31:33.187Z,5.54
2022-12-28T09:34:37.925Z,5.49
2022-12-28T09:37:40.975Z,5.49
2022-12-28T09:40:44.751Z,5.48
2022-12-28T09:43:48.626Z,5.65
2022-12-28T09:46:57.845Z,5.88
2022-12-28T09:50:06.688Z,6.78
2022-12-28T09:53:15.788Z,6.59
2022-12-28T09:56:25.299Z,6.40
2022-12-28T09:59:31.126Z,7.24
2022-12-28T10:02:35.468Z,7.83
2022-12-28T10:05:39.014Z,7.50
2022-12-28T10:08:47.199Z,7.36
2022-12-28T10:11:50.896Z,7.68
2022-12-28T10:14:54.488Z,7.50
2022-12-28T10:17:57.541Z,7.86
2022-12-28T10:21:00.560Z,8.05
2022-12-28T10:24:35.391Z,8.56
2022-12-28T10:27:32.043Z,8.60
2022-12-28T10:31:02.685Z,8.78
2022-12-28T10:34:18.600Z,8.94
2022-12-28T10:37:22.059Z,9.07
2022-12-28T10:40:27.728Z,9.39
2022-12-28T10:43:33.932Z,9.26
2022-12-28T10:46:37.205Z,9.11
2022-12-28T10:50:10.054Z,8.62
2022-12-28T10:53:24.860Z,8.59
2022-12-28T10:56:31.096Z,8.14
2022-12-28T10:59:34.254Z,7.64
2022-12-28T11:02:37.125Z,7.68
2022-12-28T11:05:40.022Z,7.71
2022-12-28T11:08:45.249Z,7.54
2022-12-28T11:11:53.955Z,7.53
2022-12-28T11:14:58.728Z,7.50
2022-12-28T11:18:15.835Z,7.76
2022-12-28T11:21:21.205Z,7.72
2022-12-28T11:24:27.614Z,7.57
2022-12-28T11:27:31.555Z,7.48
2022-12-28T11:30:44.370Z,7.55
2022-12-28T11:34:49.078Z,7.44
2022-12-28T11:38:05.812Z,7.51
2022-12-28T11:41:56.353Z,7.72
2022-12-28T11:45:16.003Z,8.29
2022-12-28T11:49:07.640Z,10.49
2022-12-28T11:52:28.498Z,10.57
2022-12-28T11:56:02.351Z,10.39
2022-12-28T11:59:14.694Z,10.87
2022-12-28T12:02:41.813Z,11.06
2022-12-28T12:05:49.015Z,11.26
2022-12-28T12:08:51.835Z,10.67
2022-12-28T12:11:57.873Z,9.38
2022-12-28T12:15:09.842Z,10.58
2022-12-28T12:18:21.308Z,10.65
2022-12-28T12:21:39.863Z,11.60
2022-12-28T12:24:55.367Z,11.61
2022-12-28T12:28:02.764Z,10.62
2022-12-28T12:31:09.506Z,11.25
2022-12-28T12:34:19.700Z,11.32
2022-12-28T12:37:44.143Z,10.91
2022-12-28T12:41:10.333Z,11.01
2022-12-28T12:44:52.003Z,11.27
2022-12-28T12:48:17.280Z,11.17
2022-12-28T12:51:30.584Z,9.78
2022-12-28T12:55:04.635Z,9.17
2022-12-28T12:58:22.385Z,9.05
2022-12-28T13:01:37.549Z,8.86
2022-12-28T13:04:41.777Z,8.84
2022-12-28T13:07:45.138Z,8.78
2022-12-28T13:10:48.263Z,8.64
2022-12-28T13:13:53.483Z,8.51
2022-12-28T13:17:01.166Z,8.38
2022-12-28T13:20:21.795Z,8.35
2022-12-28T13:23:26.053Z,8.29
2022-12-28T13:26:30.235Z,8.18
2022-12-28T13:29:40.599Z,8.16
2022-12-28T13:32:50.508Z,8.11
2022-12-28T13:36:10.837Z,8.09
2022-12-28T13:39:15.271Z,8.07
2022-12-28T13:42:47.462Z,8.10
2022-12-28T13:45:56.577Z,8.14
2022-12-28T13:48:59.946Z,8.21
2022-12-28T13:52:08.323Z,8.20
2022-12-28T13:55:15.806Z,8.56
2022-12-28T13:58:51.172Z,8.74
2022-12-28T14:01:54.580Z,8.75
2022-12-28T14:04:58.319Z,8.97
2022-12-28T14:08:01.652Z,8.52
2022-12-28T14:11:07.145Z,8.35
2022-12-28T14:14:10.970Z,8.33
2022-12-28T14:17:14.221Z,8.19
2022-12-28T14:20:17.136Z,7.96
2022-12-28T14:23:29.134Z,7.69
2022-12-28T14:26:33.130Z,7.58
2022-12-28T14:29:36.201Z,7.46
2022-12-28T14:32:42.803Z,7.44
2022-12-28T14:35:55.111Z,7.36
2022-12-28T14:39:04.731Z,7.24
2022-12-28T14:42:19.842Z,7.31
2022-12-28T14:46:07.554Z,7.28
2022-12-28T14:49:21.685Z,7.17
2022-12-28T14:52:48.036Z,7.08
2022-12-28T14:55:56.420Z,6.98
2022-12-28T14:59:00.603Z,6.81
2022-12-28T15:02:04.206Z,6.69
2022-12-28T15:05:44.162Z,6.61
2022-12-28T15:08:51.148Z,6.45
2022-12-28T15:12:10.283Z,6.30
2022-12-28T15:15:17.854Z,6.02
2022-12-28T15:18:24.409Z,5.77
2022-12-28T15:21:27.482Z,5.58
2022-12-28T15:24:34.987Z,5.48
2022-12-28T15:27:41.095Z,5.44
2022-12-28T15:30:44.389Z,5.25
2022-12-28T15:33:47.777Z,5.16
2022-12-28T15:36:53.550Z,5.03
2022-12-28T15:40:02.216Z,4.95
2022-12-28T15:43:09.710Z,4.78
2022-12-28T15:46:12.568Z,4.91
2022-12-28T15:49:17.221Z,4.96
2022-12-28T15:52:20.076Z,4.91
2022-12-28T15:55:34.586Z,5.02
2022-12-28T15:58:37.363Z,4.94
2022-12-28T16:01:43.005Z,4.83
2022-12-28T16:04:45.972Z,4.86
2022-12-28T16:07:49.535Z,4.79
2022-12-28T16:10:53.976Z,4.61
2022-12-28T16:13:59.475Z,4.33
2022-12-28T16:17:02.357Z,4.12
2022-12-28T16:20:07.261Z,3.93
2022-12-28T16:23:10.127Z,3.82
2022-12-28T16:26:14.032Z,3.74
2022-12-28T16:29:16.877Z,3.57
2022-12-28T16:32:20.166Z,3.38
2022-12-28T16:35:23.351Z,3.37
2022-12-28T16:38:28.463Z,3.35
2022-12-28T16:41:36.471Z,3.30
2022-12-28T16:44:40.801Z,3.38
2022-12-28T16:47:49.861Z,3.47
2022-12-28T16:51:14.035Z,3.44
2022-12-28T16:54:31.666Z,3.36
2022-12-28T16:57:34.515Z,3.30
2022-12-28T17:00:37.354Z,3.28
2022-12-28T17:03:40.257Z,3.25
2022-12-28T17:06:46.983Z,3.21
2022-12-28T17:09:50.386Z,3.25
2022-12-28T17:12:53.483Z,3.16
2022-12-28T17:16:00.648Z,3.16
2022-12-28T17:19:04.116Z,3.15
2022-12-28T17:22:08.053Z,3.21
2022-12-28T17:25:14.899Z,3.17
2022-12-28T17:28:17.579Z,3.10
2022-12-28T17:31:23.088Z,3.05
2022-12-28T17:34:25.982Z,2.98
2022-12-28T17:37:30.691Z,2.89
2022-12-28T17:40:33.542Z,2.73
2022-12-28T17:43:36.334Z,2.54
2022-12-28T17:46:42.264Z,2.33
2022-12-28T17:49:45.216Z,2.15
2022-12-28T17:52:48.102Z,2.04
2022-12-28T17:55:50.939Z,1.95
2022-12-28T17:58:56.017Z,1.83
2022-12-28T18:02:05.338Z,1.81
2022-12-28T18:05:08.888Z,1.73
2022-12-28T18:08:11.644Z,1.62
2022-12-28T18:11:14.660Z,1.48
2022-12-28T18:14:17.363Z,1.37
2022-12-28T18:17:23.515Z,1.31
2022-12-28T18:20:26.520Z,1.19
2022-12-28T18:23:30.441Z,1.08
2022-12-28T18:26:33.718Z,0.92
2022-12-28T18:29:36.704Z,0.83
2022-12-28T18:32:42.610Z,0.59
2022-12-28T18:35:45.381Z,0.61
2022-12-28T18:38:49.316Z,0.46
2022-12-28T18:41:52.461Z,0.44
2022-12-28T18:44:55.552Z,0.32
2022-12-28T18:47:58.734Z,0.23
2022-12-28T18:51:05.420Z,0.08
2022-12-28T18:54:08.069Z,0.03
2022-12-28T18:57:12.466Z,-0.07
2022-12-28T19:00:15.590Z,-0.34
2022-12-28T19:03:18.543Z,-0.28
2022-12-28T19:06:22.882Z,-0.33
2022-12-28T19:09:25.572Z,-0.30
2022-12-28T19:12:28.285Z,-0.42
2022-12-28T19:15:34.444Z,-0.49
2022-12-28T19:18:37.338Z,-0.53
2022-12-28T19:21:41.965Z,-0.69
2022-12-28T19:24:44.942Z,-0.65
2022-12-28T19:27:47.714Z,-0.82
2022-12-28T19:30:50.772Z,-0.87
2022-12-28T19:33:53.642Z,-0.89
2022-12-28T19:36:56.375Z,-0.89
2022-12-28T19:40:03.795Z,-0.82
2022-12-28T19:43:08.124Z,-0.81
2022-12-28T19:46:16.544Z,-0.82
2022-12-28T19:49:19.760Z,-0.85
2022-12-28T19:52:25.712Z,-0.82
2022-12-28T19:55:29.482Z,-0.90
2022-12-28T19:58:33.982Z,-0.82
2022-12-28T20:01:37.595Z,-0.89
2022-12-28T20:04:40.601Z,-0.93
2022-12-28T20:07:43.538Z,-0.97
2022-12-28T20:10:46.319Z,-0.99
2022-12-28T20:13:54.469Z,-0.92
2022-12-28T20:16:57.197Z,-1.04
2022-12-28T20:20:00.003Z,-0.97
2022-12-28T20:23:02.837Z,-1.00
2022-12-28T20:26:05.801Z,-1.12
2022-12-28T20:29:13.689Z,-1.03
2022-12-28T20:32:16.687Z,-1.06
2022-12-28T20:35:19.527Z,-1.09
2022-12-28T20:38:22.465Z,-1.21
2022-12-28T20:41:48.973Z,-1.21
2022-12-28T20:44:51.988Z,-1.15
2022-12-28T20:47:57.852Z,-1.13
2022-12-28T20:51:03.777Z,-1.16
2022-12-28T20:54:06.693Z,-1.03
2022-12-28T20:57:10.301Z,-0.89
2022-12-28T21:00:16.233Z,-0.77
2022-12-28T21:03:19.531Z,-0.74
2022-12-28T21:06:26.490Z,-0.73
2022-12-28T21:09:32.504Z,-0.66
2022-12-28T21:12:35.349Z,-0.70
2022-12-28T21:15:40.979Z,-0.71
2022-12-28T21:18:47.091Z,-0.72
2022-12-28T21:21:50.357Z,-0.78
2022-12-28T21:24:53.505Z,-0.82
2022-12-28T21:27:56.384Z,-0.81
2022-12-28T21:31:03.284Z,-0.88
2022-12-28T21:34:09.322Z,-0.96
2022-12-28T21:37:30.570Z,-1.01
2022-12-28T21:40:33.430Z,-1.05
2022-12-28T21:43:36.443Z,-1.07
2022-12-28T21:46:39.589Z,-1.07
2022-12-28T21:49:43.506Z,-1.10
2022-12-28T21:52:46.321Z,-1.14
2022-12-28T21:55:49.355Z,-1.13
2022-12-28T21:58:52.169Z,-1.15
2022-12-28T22:02:13.539Z,-1.11
2022-12-28T22:05:34.766Z,-1.13
2022-12-28T22:08:56.088Z,-1.15
2022-12-28T22:12:20.626Z,-1.17
2022-12-28T22:15:45.492Z,-1.30
2022-12-28T22:19:04.091Z,-1.30
2022-12-28T22:22:10.438Z,-1.23
2022-12-28T22:25:15.280Z,-1.00
2022-12-28T22:28:18.028Z,-0.97
2022-12-28T22:31:20.883Z,-0.69
2022-12-28T22:34:23.665Z,-0.60
2022-12-28T22:37:26.533Z,-0.45
2022-12-28T22:40:29.427Z,-0.44
2022-12-28T22:43:32.302Z,-0.37
2022-12-28T22:46:35.034Z,-0.33
2022-12-28T22:49:37.929Z,-0.25
2022-12-28T22:52:40.966Z,-0.20
2022-12-28T22:55:43.733Z,-0.17
2022-12-28T22:58:47.827Z,-0.17
2022-12-28T23:01:53.143Z,-0.08
2022-12-28T23:04:56.028Z,0.03
2022-12-28T23:07:58.775Z,0.14
2022-12-28T23:11:29.041Z,0.21
2022-12-28T23:14:50.400Z,0.28
2022-12-28T23:18:14.415Z,0.37
2022-12-28T23:21:41.088Z,0.42
2022-12-28T23:25:02.338Z,0.51
2022-12-28T23:28:07.639Z,0.49
2022-12-28T23:31:10.454Z,0.55
2022-12-28T23:34:16.492Z,0.53
2022-12-28T23:37:19.395Z,0.56
2022-12-28T23:40:23.227Z,0.45
2022-12-28T23:43:25.988Z,0.43
2022-12-28T23:46:28.911Z,0.43
2022-12-28T23:49:37.725Z,0.46
2022-12-28T23:52:40.874Z,0.49
2022-12-28T23:55:43.658Z,0.50
2022-12-28T23:58:49.732Z,0.54
